Time;durP1;ratioP1;P1;durP2;ratioP2;P2;SDS_P1;SDS_P2;PMS_P1;PMS_P2;Temp;Humidity;BMP_temperature;BMP_pressure;BME280_temperature;BME280_humidity;BME280_pressure;Samples;Min_cycle;Max_cycle;Signal;HPM_P1;HPM_P2
2023/08/25 00:00:48;;;;;;;16.30;9.45;;;28.50;71.50;;;;;;5054526;28;20384;-79
2023/08/25 00:03:14;;;;;;;11.45;7.97;;;28.50;71.70;;;;;;5054566;28;20384;-78
2023/08/25 00:05:40;;;;;;;13.38;8.07;;;28.50;71.80;;;;;;5070192;28;20025;-77
2023/08/25 00:08:06;;;;;;;14.10;8.50;;;28.50;71.80;;;;;;5061408;28;20032;-78
2023/08/25 00:10:33;;;;;;;13.65;8.27;;;28.50;71.70;;;;;;5061088;28;20029;-76
2023/08/25 00:12:59;;;;;;;10.45;7.80;;;28.40;71.70;;;;;;5054597;28;20116;-78
2023/08/25 00:15:24;;;;;;;11.07;8.07;;;28.50;71.70;;;;;;5054401;28;20045;-79
2023/08/25 00:17:52;;;;;;;9.70;7.70;;;28.50;71.40;;;;;;5053801;28;20063;-79
2023/08/25 00:20:18;;;;;;;12.18;8.30;;;28.40;71.10;;;;;;5053747;28;20040;-78
2023/08/25 00:22:44;;;;;;;17.83;7.85;;;28.40;71.30;;;;;;5054085;28;20021;-78
2023/08/25 00:25:10;;;;;;;11.27;8.35;;;28.40;71.30;;;;;;5053537;28;20017;-79
2023/08/25 00:27:35;;;;;;;11.48;7.88;;;28.30;71.40;;;;;;5053522;28;20014;-78
2023/08/25 00:30:01;;;;;;;10.65;8.77;;;28.30;71.60;;;;;;5053068;28;20025;-78
2023/08/25 00:32:27;;;;;;;8.65;7.40;;;28.30;71.60;;;;;;5052302;28;20025;-78
2023/08/25 00:34:53;;;;;;;14.30;7.65;;;28.30;71.60;;;;;;5053575;28;20043;-78
2023/08/25 00:37:19;;;;;;;9.13;7.78;;;28.30;71.80;;;;;;5053336;28;20493;-77
2023/08/25 00:39:45;;;;;;;10.60;8.05;;;28.20;71.80;;;;;;5053342;28;20036;-79
2023/08/25 00:42:11;;;;;;;9.77;7.85;;;28.20;72.10;;;;;;5053246;28;20021;-78
2023/08/25 00:44:37;;;;;;;14.32;8.10;;;28.20;72.10;;;;;;5053319;28;20029;-78
2023/08/25 00:47:04;;;;;;;12.52;7.93;;;28.20;72.80;;;;;;5051968;28;20025;-78
2023/08/25 00:49:30;;;;;;;10.75;7.88;;;28.20;72.00;;;;;;5068717;28;20021;-77
2023/08/25 00:51:56;;;;;;;11.38;7.97;;;28.10;71.60;;;;;;5053438;28;20021;-78
2023/08/25 00:54:25;;;;;;;10.77;7.78;;;28.10;71.50;;;;;;5053266;28;20038;-78
2023/08/25 00:56:52;;;;;;;12.73;7.78;;;28.10;71.30;;;;;;5068623;28;20021;-77
2023/08/25 00:59:18;;;;;;;9.75;7.85;;;28.10;71.20;;;;;;5050418;28;20045;-78
2023/08/25 01:01:47;;;;;;;13.30;7.78;;;28.00;71.20;;;;;;5050263;28;20103;-77
2023/08/25 01:04:13;;;;;;;9.27;7.63;;;28.00;71.90;;;;;;5050965;28;20025;-78
2023/08/25 01:06:39;;;;;;;10.25;7.88;;;28.00;71.10;;;;;;5052668;28;20534;-77
2023/08/25 01:09:07;;;;;;;10.10;7.07;;;28.00;71.20;;;;;;5053327;28;20104;-78
2023/08/25 01:11:47;;;;;;;8.43;7.00;;;27.90;71.20;;;;;;5052811;28;20355;-79
2023/08/25 01:14:36;;;;;;;11.23;7.65;;;27.90;71.20;;;;;;5052604;28;20031;-78
2023/08/25 01:17:06;;;;;;;14.18;8.35;;;27.90;71.50;;;;;;5053058;28;20503;-78
2023/08/25 01:19:54;;;;;;;11.77;8.13;;;27.90;71.60;;;;;;5068132;28;20044;-77
2023/08/25 01:23:09;;;;;;;10.07;7.32;;;27.90;71.60;;;;;;5051796;28;20020;-77
2023/08/25 01:25:35;;;;;;;12.25;8.70;;;27.90;71.30;;;;;;5043656;28;20036;-78
2023/08/25 01:28:03;;;;;;;9.00;7.40;;;27.90;71.20;;;;;;5052446;28;20373;-78
2023/08/25 01:30:31;;;;;;;10.15;7.35;;;27.90;71.30;;;;;;5052879;28;20028;-77
2023/08/25 01:32:57;;;;;;;14.25;7.57;;;27.90;71.40;;;;;;5068236;28;20444;-78
2023/08/25 01:35:45;;;;;;;8.07;7.00;;;27.80;71.60;;;;;;5052251;28;20031;-78
2023/08/25 01:38:23;;;;;;;11.60;7.93;;;27.80;71.70;;;;;;5067987;28;20456;-77
2023/08/25 01:41:03;;;;;;;9.45;7.20;;;27.80;71.70;;;;;;5052773;28;20029;-78
2023/08/25 01:43:33;;;;;;;11.73;7.70;;;27.80;71.80;;;;;;5052490;28;20488;-79
2023/08/25 01:45:59;;;;;;;11.65;7.78;;;27.70;71.90;;;;;;5052624;28;20083;-78
2023/08/25 01:48:26;;;;;;;11.10;7.50;;;27.70;72.30;;;;;;5052853;28;20464;-78
2023/08/25 01:50:53;;;;;;;9.25;7.60;;;27.80;72.40;;;;;;5052557;28;20064;-78
2023/08/25 01:53:19;;;;;;;12.52;7.80;;;27.70;72.50;;;;;;5052933;28;20028;-79
2023/08/25 01:55:45;;;;;;;9.45;7.43;;;27.70;72.50;;;;;;5052298;28;20495;-78
2023/08/25 01:58:13;;;;;;;15.05;8.40;;;27.70;72.60;;;;;;5052411;28;20032;-78
2023/08/25 02:00:39;;;;;;;9.38;7.32;;;27.70;72.50;;;;;;5052447;28;20021;-79
2023/08/25 02:03:04;;;;;;;13.20;8.02;;;27.70;72.50;;;;;;5052576;28;20067;-80
2023/08/25 02:05:30;;;;;;;10.10;8.13;;;27.70;72.50;;;;;;5051184;28;20029;-80
2023/08/25 02:07:56;;;;;;;8.40;7.18;;;27.70;72.50;;;;;;5052464;28;20025;-79
2023/08/25 02:10:21;;;;;;;8.90;7.95;;;27.70;72.50;;;;;;5052190;28;20028;-80
2023/08/25 02:12:47;;;;;;;10.52;7.20;;;27.70;72.50;;;;;;5067378;28;20029;-79
2023/08/25 02:15:13;;;;;;;8.68;7.45;;;27.70;73.10;;;;;;5052358;28;20358;-78
2023/08/25 02:17:40;;;;;;;8.73;7.90;;;27.60;72.50;;;;;;5050797;28;20087;-80
2023/08/25 02:20:07;;;;;;;11.38;7.85;;;27.60;72.60;;;;;;5052214;28;20021;-80
2023/08/25 02:22:33;;;;;;;11.00;7.55;;;27.60;72.70;;;;;;5052284;28;20025;-79
2023/08/25 02:24:59;;;;;;;11.65;7.72;;;27.60;72.80;;;;;;5052288;28;20025;-78
2023/08/25 02:27:25;;;;;;;10.48;7.78;;;27.60;72.70;;;;;;5052181;28;20017;-79
2023/08/25 02:29:52;;;;;;;11.77;8.10;;;27.60;72.60;;;;;;5052283;28;20087;-78
2023/08/25 02:32:17;;;;;;;9.98;7.72;;;27.60;72.50;;;;;;5052250;28;20560;-78
2023/08/25 02:34:43;;;;;;;10.85;7.70;;;27.50;72.20;;;;;;5054477;28;20115;-78
2023/08/25 02:37:09;;;;;;;12.27;8.40;;;27.50;72.30;;;;;;5056031;28;20045;-78
2023/08/25 02:39:35;;;;;;;9.32;8.15;;;27.40;72.50;;;;;;5056091;28;20072;-79
2023/08/25 02:42:01;;;;;;;10.35;7.97;;;27.40;72.80;;;;;;5055698;28;20025;-78
2023/08/25 02:44:27;;;;;;;10.48;8.50;;;27.40;73.00;;;;;;5054176;28;20031;-78
2023/08/25 02:46:52;;;;;;;14.23;7.80;;;27.40;73.10;;;;;;5055676;28;20124;-78
2023/08/25 02:49:18;;;;;;;17.58;8.13;;;27.40;73.50;;;;;;5054443;28;20021;-78
2023/08/25 02:51:44;;;;;;;11.52;8.35;;;27.40;73.70;;;;;;5055732;28;20033;-77
2023/08/25 02:54:10;;;;;;;11.23;8.70;;;27.30;73.70;;;;;;5055534;28;20028;-79
2023/08/25 02:56:35;;;;;;;13.38;8.57;;;27.30;73.60;;;;;;5055187;28;20095;-78
2023/08/25 02:59:01;;;;;;;13.43;7.88;;;27.30;73.80;;;;;;5055401;28;20044;-77
2023/08/25 03:01:27;;;;;;;9.35;8.25;;;27.20;73.50;;;;;;5055563;28;20021;-77
2023/08/25 03:03:55;;;;;;;10.15;8.77;;;27.20;73.10;;;;;;5055244;28;20032;-79
2023/08/25 03:06:21;;;;;;;12.18;8.85;;;27.20;73.10;;;;;;5055297;28;20021;-76
2023/08/25 03:08:47;;;;;;;15.27;8.50;;;27.10;73.10;;;;;;5055296;28;20029;-77
2023/08/25 03:11:12;;;;;;;11.43;8.48;;;27.10;73.40;;;;;;5054848;28;20078;-78
2023/08/25 03:13:38;;;;;;;12.45;8.00;;;27.00;73.50;;;;;;5055145;28;20017;-77
2023/08/25 03:16:04;;;;;;;14.48;7.97;;;27.00;73.80;;;;;;5055166;28;20026;-77
2023/08/25 03:18:30;;;;;;;15.50;8.40;;;27.00;74.10;;;;;;5055168;28;20029;-77
2023/08/25 03:20:56;;;;;;;9.82;7.72;;;27.00;74.10;;;;;;5055069;28;20473;-78
2023/08/25 03:23:21;;;;;;;9.30;8.27;;;27.00;74.10;;;;;;5056936;28;20025;-78
2023/08/25 03:25:48;;;;;;;15.43;8.88;;;27.00;74.40;;;;;;5057436;28;20032;-78
2023/08/25 03:28:14;;;;;;;14.02;7.80;;;27.00;74.70;;;;;;5054706;28;20025;-75
2023/08/25 03:30:39;;;;;;;15.27;8.90;;;27.00;74.80;;;;;;5054801;28;20017;-78
2023/08/25 03:33:05;;;;;;;14.85;8.00;;;26.90;74.50;;;;;;5054896;28;20043;-77
2023/08/25 03:35:38;;;;;;;15.60;8.13;;;27.00;74.50;;;;;;5054750;28;20083;-76
2023/08/25 03:38:05;;;;;;;10.27;8.32;;;26.90;74.40;;;;;;5054784;28;20500;-76
2023/08/25 03:40:31;;;;;;;11.88;8.40;;;26.90;74.40;;;;;;5053622;28;20033;-77
2023/08/25 03:42:56;;;;;;;16.20;9.65;;;26.80;74.80;;;;;;5053401;28;20031;-76
2023/08/25 03:45:22;;;;;;;10.90;8.80;;;26.90;75.00;;;;;;5053937;28;20029;-77
2023/08/25 03:47:48;;;;;;;12.45;8.98;;;26.80;75.70;;;;;;5054877;28;20017;-77
2023/08/25 03:50:14;;;;;;;8.65;7.82;;;26.80;75.10;;;;;;5054347;28;20059;-78
2023/08/25 03:52:40;;;;;;;10.00;7.88;;;26.80;75.30;;;;;;5054472;28;20024;-77
2023/08/25 03:55:05;;;;;;;15.23;8.38;;;26.80;75.40;;;;;;5054341;28;20017;-78
2023/08/25 03:57:31;;;;;;;11.65;8.70;;;26.80;75.50;;;;;;5054025;28;20035;-78
2023/08/25 03:59:57;;;;;;;13.65;7.78;;;26.80;75.70;;;;;;5053591;28;20108;-77
2023/08/25 04:02:23;;;;;;;12.52;8.48;;;26.80;75.40;;;;;;5051788;28;20040;-78
2023/08/25 04:04:48;;;;;;;15.55;9.02;;;26.80;75.20;;;;;;5053923;28;20025;-77
2023/08/25 04:07:14;;;;;;;12.00;8.32;;;26.80;75.30;;;;;;5053932;28;20025;-76
2023/08/25 04:09:41;;;;;;;12.77;8.52;;;26.80;75.50;;;;;;5053741;28;20110;-76
2023/08/25 04:12:07;;;;;;;16.38;8.10;;;26.70;75.60;;;;;;5053382;28;20484;-76
2023/08/25 04:14:34;;;;;;;11.43;8.48;;;26.70;75.50;;;;;;5051999;28;20473;-77
2023/08/25 04:16:59;;;;;;;13.57;8.38;;;26.70;75.40;;;;;;5052176;28;20029;-78
2023/08/25 04:19:25;;;;;;;12.07;8.05;;;26.70;75.40;;;;;;5067228;28;20524;-77
2023/08/25 04:21:51;;;;;;;11.10;8.07;;;26.70;75.50;;;;;;5052053;28;20029;-78
2023/08/25 04:24:17;;;;;;;11.75;8.02;;;26.70;75.60;;;;;;5052055;28;20028;-77
2023/08/25 04:26:44;;;;;;;15.05;9.10;;;26.70;75.70;;;;;;5052328;28;20017;-78
2023/08/25 04:29:09;;;;;;;11.52;8.57;;;26.70;76.10;;;;;;5053448;28;20071;-78
2023/08/25 04:31:36;;;;;;;14.63;8.82;;;26.70;76.20;;;;;;5054010;28;20017;-78
2023/08/25 04:34:05;;;;;;;9.90;8.27;;;26.70;76.30;;;;;;5055112;28;20033;-77
2023/08/25 04:36:32;;;;;;;10.23;8.80;;;26.70;76.10;;;;;;5053378;28;20044;-77
2023/08/25 04:38:58;;;;;;;9.73;8.70;;;26.70;76.00;;;;;;5053675;28;20075;-77
2023/08/25 04:41:24;;;;;;;10.20;9.10;;;26.70;76.50;;;;;;5053614;28;20048;-77
2023/08/25 04:43:49;;;;;;;11.35;8.57;;;26.70;75.70;;;;;;5053730;28;20043;-77
2023/08/25 04:46:15;;;;;;;12.60;8.35;;;26.60;75.60;;;;;;5053457;28;20067;-77
2023/08/25 04:48:45;;;;;;;16.00;7.85;;;26.70;76.10;;;;;;5053531;28;20100;-77
2023/08/25 04:51:14;;;;;;;23.40;8.90;;;26.70;76.30;;;;;;5053219;28;20018;-77
2023/08/25 04:53:41;;;;;;;10.10;8.82;;;26.70;76.30;;;;;;5053480;28;20028;-78
2023/08/25 04:56:06;;;;;;;14.25;9.10;;;26.60;75.80;;;;;;5053217;28;20021;-77
2023/08/25 04:58:32;;;;;;;10.10;8.27;;;26.60;75.70;;;;;;5053363;28;20170;-77
2023/08/25 05:00:58;;;;;;;16.20;8.98;;;26.60;75.80;;;;;;5052592;28;20032;-79
2023/08/25 05:03:24;;;;;;;20.23;8.65;;;26.60;75.90;;;;;;5052862;28;20057;-79
2023/08/25 05:05:50;;;;;;;12.90;8.90;;;26.60;75.80;;;;;;5053321;28;20021;-79
2023/08/25 05:08:15;;;;;;;10.32;8.98;;;26.70;76.10;;;;;;5053363;28;20039;-79
2023/08/25 05:10:41;;;;;;;11.55;8.90;;;26.60;76.70;;;;;;5053442;28;20104;-79
2023/08/25 05:13:07;;;;;;;14.35;9.27;;;26.70;76.40;;;;;;5052096;28;20029;-79
2023/08/25 05:15:33;;;;;;;18.15;8.68;;;26.60;76.20;;;;;;5053108;28;20029;-78
2023/08/25 05:17:59;;;;;;;14.23;8.88;;;26.70;76.40;;;;;;5052697;28;20400;-78
2023/08/25 05:20:25;;;;;;;14.70;9.27;;;26.60;76.40;;;;;;5053094;28;20107;-79
2023/08/25 05:22:50;;;;;;;15.80;8.80;;;26.70;76.80;;;;;;5050779;28;20044;-79
2023/08/25 05:25:17;;;;;;;21.52;8.95;;;26.60;77.10;;;;;;5051203;28;20103;-79
2023/08/25 05:27:43;;;;;;;18.17;8.93;;;26.70;77.10;;;;;;5051591;28;20056;-79
2023/08/25 05:30:09;;;;;;;23.05;9.48;;;26.70;76.90;;;;;;5051950;28;20465;-78
2023/08/25 05:32:35;;;;;;;19.45;9.18;;;26.70;76.70;;;;;;5052548;28;20423;-78
2023/08/25 05:35:01;;;;;;;20.42;8.90;;;26.80;76.60;;;;;;5052767;28;20035;-78
2023/08/25 05:37:27;;;;;;;25.27;9.48;;;26.80;76.70;;;;;;5052617;28;20484;-79
2023/08/25 05:39:53;;;;;;;25.25;9.77;;;26.80;76.80;;;;;;5051703;28;20101;-78
2023/08/25 05:42:18;;;;;;;23.13;8.80;;;26.80;76.70;;;;;;5052991;28;20032;-78
2023/08/25 05:44:44;;;;;;;12.20;8.32;;;26.80;76.60;;;;;;5052996;28;20083;-77
2023/08/25 05:47:10;;;;;;;15.57;9.05;;;26.80;77.10;;;;;;5052900;28;20143;-78
2023/08/25 05:49:36;;;;;;;20.35;8.80;;;26.80;77.50;;;;;;5052962;28;20086;-79
2023/08/25 05:52:02;;;;;;;17.92;8.85;;;26.80;77.80;;;;;;5052727;28;20071;-78
2023/08/25 05:54:27;;;;;;;13.80;8.80;;;26.80;78.00;;;;;;5052343;28;20036;-79
2023/08/25 05:56:53;;;;;;;11.95;8.15;;;26.80;78.30;;;;;;5052428;28;20101;-79
2023/08/25 05:59:19;;;;;;;17.70;8.63;;;26.80;78.70;;;;;;5052635;28;20425;-79
2023/08/25 06:01:45;;;;;;;14.95;8.90;;;26.80;78.40;;;;;;5052743;28;20021;-79
2023/08/25 06:04:11;;;;;;;17.40;10.18;;;26.90;78.40;;;;;;5052597;28;20123;-80
2023/08/25 06:06:38;;;;;;;25.50;10.75;;;26.90;78.20;;;;;;5052500;28;20056;-79
2023/08/25 06:09:05;;;;;;;29.00;12.73;;;27.00;78.20;;;;;;5053293;28;20021;-80
2023/08/25 06:11:30;;;;;;;27.20;11.55;;;27.10;78.60;;;;;;5055213;28;20027;-79
2023/08/25 06:13:56;;;;;;;21.25;9.90;;;27.10;78.40;;;;;;5056429;28;20064;-78
2023/08/25 06:16:23;;;;;;;25.40;9.73;;;27.20;78.60;;;;;;5056346;28;20473;-75
2023/08/25 06:18:49;;;;;;;24.33;9.30;;;27.20;78.50;;;;;;5055735;28;20068;-77
2023/08/25 06:21:14;;;;;;;26.20;9.50;;;27.20;78.30;;;;;;5071225;28;20064;-79
2023/08/25 06:23:40;;;;;;;15.18;9.80;;;27.30;78.30;;;;;;5056063;28;20032;-78
2023/08/25 06:26:06;;;;;;;17.00;9.05;;;27.30;78.00;;;;;;5055877;28;20021;-75
2023/08/25 06:28:33;;;;;;;17.50;9.23;;;27.30;77.80;;;;;;5055471;28;20112;-79
2023/08/25 06:30:59;;;;;;;20.85;9.35;;;27.30;77.80;;;;;;5055380;28;20021;-75
2023/08/25 06:33:29;;;;;;;19.98;8.82;;;27.40;77.90;;;;;;5055841;28;20029;-79
2023/08/25 06:35:56;;;;;;;17.95;9.18;;;27.40;78.20;;;;;;5055713;28;20485;-79
2023/08/25 06:38:23;;;;;;;19.73;9.10;;;27.40;78.30;;;;;;5055810;28;20044;-78
2023/08/25 06:40:49;;;;;;;18.52;9.35;;;27.50;78.50;;;;;;5055651;28;20080;-78
2023/08/25 06:43:15;;;;;;;18.35;9.30;;;27.50;78.40;;;;;;5055554;28;20032;-78
2023/08/25 06:45:41;;;;;;;19.17;8.98;;;27.50;78.30;;;;;;5055688;28;20029;-79
2023/08/25 06:48:10;;;;;;;18.40;9.25;;;27.60;78.60;;;;;;5055882;28;20021;-78
2023/08/25 06:50:35;;;;;;;16.83;9.05;;;27.60;77.90;;;;;;5055588;28;20021;-79
2023/08/25 06:53:01;;;;;;;19.08;9.32;;;27.70;77.60;;;;;;5055604;28;20107;-79
2023/08/25 06:55:27;;;;;;;23.02;9.20;;;27.70;77.60;;;;;;5055098;28;20028;-79
2023/08/25 06:57:53;;;;;;;19.73;9.10;;;27.80;77.80;;;;;;5055285;28;20024;-78
2023/08/25 07:00:19;;;;;;;19.83;10.10;;;27.80;77.90;;;;;;5054214;28;20477;-79
2023/08/25 07:02:44;;;;;;;24.77;9.60;;;27.80;77.90;;;;;;5055405;28;20029;-79
2023/08/25 07:05:11;;;;;;;25.52;9.73;;;27.80;78.00;;;;;;5055384;28;20029;-79
2023/08/25 07:07:37;;;;;;;18.73;9.50;;;27.80;77.90;;;;;;5054977;28;20512;-78
2023/08/25 07:10:04;;;;;;;13.63;9.27;;;27.90;77.80;;;;;;5055419;28;20025;-78
2023/08/25 07:12:30;;;;;;;15.00;9.00;;;27.80;77.70;;;;;;5055693;28;20021;-79
2023/08/25 07:14:56;;;;;;;19.05;8.70;;;27.90;78.40;;;;;;5055540;28;20465;-79
2023/08/25 07:17:22;;;;;;;18.95;9.52;;;27.90;78.70;;;;;;5055071;28;20025;-79
2023/08/25 07:19:48;;;;;;;12.32;9.27;;;28.00;78.90;;;;;;5053812;28;20029;-79
2023/08/25 07:22:14;;;;;;;10.45;8.45;;;28.00;78.80;;;;;;5055128;28;20021;-78
2023/08/25 07:24:39;;;;;;;10.60;8.63;;;28.00;78.80;;;;;;5055104;28;20488;-79
2023/08/25 07:27:05;;;;;;;16.25;8.27;;;28.00;78.60;;;;;;5055268;28;20029;-78
2023/08/25 07:29:34;;;;;;;20.02;9.52;;;28.10;78.60;;;;;;5055153;28;20029;-78
2023/08/25 07:32:00;;;;;;;13.50;8.15;;;28.10;78.40;;;;;;5055073;28;20101;-78
2023/08/25 07:34:26;;;;;;;15.60;8.75;;;28.10;78.10;;;;;;5055106;28;20104;-77
2023/08/25 07:36:53;;;;;;;18.45;8.80;;;28.10;77.90;;;;;;5054994;28;20045;-78
2023/08/25 07:39:19;;;;;;;13.93;8.10;;;28.20;77.70;;;;;;5053713;28;20040;-77
2023/08/25 07:41:45;;;;;;;10.52;8.05;;;28.20;77.70;;;;;;5054723;28;20017;-78
2023/08/25 07:44:11;;;;;;;12.32;8.07;;;28.30;77.40;;;;;;5054802;28;20127;-79
2023/08/25 07:46:38;;;;;;;14.10;8.13;;;28.30;76.90;;;;;;5054269;28;20021;-79
2023/08/25 07:49:07;;;;;;;16.15;8.00;;;28.30;76.60;;;;;;5053515;28;20057;-79
2023/08/25 07:51:34;;;;;;;16.02;9.73;;;28.40;77.00;;;;;;5053614;28;20025;-79
2023/08/25 07:54:00;;;;;;;13.77;8.05;;;28.40;77.10;;;;;;5054560;28;20059;-79
2023/08/25 07:56:26;;;;;;;21.58;9.55;;;28.50;76.80;;;;;;5054592;28;20048;-79
2023/08/25 07:58:53;;;;;;;17.17;7.97;;;28.50;76.70;;;;;;5054398;28;20469;-79
2023/08/25 08:01:19;;;;;;;18.15;8.88;;;28.60;76.80;;;;;;5055047;28;20021;-79
2023/08/25 08:03:45;;;;;;;12.10;8.25;;;28.60;77.00;;;;;;5054640;28;20029;-78
2023/08/25 08:06:11;;;;;;;13.65;8.10;;;28.60;77.00;;;;;;5054368;28;20100;-79
2023/08/25 08:08:37;;;;;;;15.10;8.77;;;28.70;76.70;;;;;;5053223;28;20151;-79
2023/08/25 08:11:06;;;;;;;15.40;8.68;;;28.70;76.50;;;;;;5054365;28;20474;-79
2023/08/25 08:13:32;;;;;;;16.95;8.18;;;28.80;76.40;;;;;;5054462;28;20052;-79
2023/08/25 08:15:58;;;;;;;16.52;8.30;;;28.80;76.40;;;;;;5053938;28;20494;-79
2023/08/25 08:18:23;;;;;;;15.90;8.75;;;28.90;76.70;;;;;;5054109;28;20037;-79
2023/08/25 08:20:49;;;;;;;12.40;8.93;;;28.90;76.40;;;;;;5052899;28;20017;-78
2023/08/25 08:23:15;;;;;;;11.70;7.72;;;29.00;76.20;;;;;;5069549;28;20029;-80
2023/08/25 08:25:41;;;;;;;12.27;8.02;;;29.00;76.10;;;;;;5053965;28;20028;-79
2023/08/25 08:28:08;;;;;;;12.32;8.32;;;29.00;76.20;;;;;;5054135;28;20029;-78
2023/08/25 08:30:35;;;;;;;11.00;8.35;;;29.10;75.90;;;;;;5053562;28;20021;-78
2023/08/25 08:33:01;;;;;;;21.20;8.68;;;29.20;75.80;;;;;;5054074;28;20032;-78
2023/08/25 08:35:27;;;;;;;12.10;8.20;;;29.20;76.00;;;;;;5053870;28;20025;-79
2023/08/25 08:37:52;;;;;;;14.43;8.13;;;29.20;75.70;;;;;;5052652;28;20493;-78
2023/08/25 08:40:20;;;;;;;12.15;8.15;;;29.30;75.30;;;;;;5069410;28;20388;-79
2023/08/25 08:42:49;;;;;;;17.20;7.88;;;29.40;75.30;;;;;;5053805;28;20052;-79
2023/08/25 08:45:17;;;;;;;13.93;7.70;;;29.40;75.00;;;;;;5053865;28;20025;-79
2023/08/25 08:47:44;;;;;;;9.45;7.72;;;29.50;74.50;;;;;;5052511;28;20021;-79
2023/08/25 08:50:11;;;;;;;11.93;8.25;;;29.50;74.10;;;;;;5053558;28;20103;-79
2023/08/25 08:52:37;;;;;;;11.73;8.40;;;29.60;74.20;;;;;;5053496;28;20083;-79
2023/08/25 08:55:07;;;;;;;17.23;7.78;;;29.60;74.50;;;;;;5053308;28;20029;-79
2023/08/25 08:57:33;;;;;;;18.93;8.40;;;29.70;74.60;;;;;;5053443;28;20036;-80
2023/08/25 09:00:03;;;;;;;11.90;7.53;;;29.70;74.30;;;;;;5053237;28;20469;-79
2023/08/25 09:02:31;;;;;;;10.27;7.50;;;29.70;73.90;;;;;;5053149;28;20029;-79
2023/08/25 09:04:58;;;;;;;9.57;7.18;;;29.80;73.70;;;;;;5053376;28;20031;-80
2023/08/25 09:07:28;;;;;;;15.35;7.50;;;29.80;73.20;;;;;;5053422;28;20021;-80
2023/08/25 09:09:57;;;;;;;12.50;8.30;;;29.90;73.20;;;;;;5053300;28;20025;-79
2023/08/25 09:12:27;;;;;;;15.05;8.10;;;30.00;73.20;;;;;;5053282;28;20044;-79
2023/08/25 09:14:53;;;;;;;11.23;7.35;;;30.00;72.90;;;;;;5053306;28;20124;-79
2023/08/25 09:17:20;;;;;;;11.43;7.68;;;30.10;72.70;;;;;;5053305;28;20079;-79
2023/08/25 09:19:46;;;;;;;10.50;7.30;;;30.10;72.60;;;;;;5052954;28;20071;-80
2023/08/25 09:22:16;;;;;;;13.95;7.75;;;30.10;72.30;;;;;;5051870;28;20056;-80
2023/08/25 09:24:43;;;;;;;11.65;7.95;;;30.20;71.80;;;;;;5052049;28;20033;-79
2023/08/25 09:27:23;;;;;;;11.02;7.60;;;30.20;71.40;;;;;;5052991;28;20075;-79
2023/08/25 09:30:03;;;;;;;9.00;7.00;;;30.30;71.20;;;;;;5053080;28;20028;-80
2023/08/25 09:32:29;;;;;;;14.02;7.82;;;30.30;71.00;;;;;;5053098;28;20471;-79
2023/08/25 09:34:55;;;;;;;13.07;7.40;;;30.30;70.60;;;;;;5051779;28;20029;-80
2023/08/25 09:37:23;;;;;;;11.55;7.70;;;30.40;70.30;;;;;;5051420;28;20389;-79
2023/08/25 09:39:48;;;;;;;14.85;7.95;;;30.50;70.70;;;;;;5052695;28;20033;-80
2023/08/25 09:42:16;;;;;;;11.55;7.70;;;30.50;70.60;;;;;;5051079;28;20071;-78
2023/08/25 09:44:42;;;;;;;11.15;7.70;;;30.50;70.20;;;;;;5052315;28;20112;-77
2023/08/25 09:47:09;;;;;;;16.17;7.95;;;30.60;70.20;;;;;;5053064;28;20456;-78
2023/08/25 09:49:39;;;;;;;13.15;7.38;;;30.60;69.50;;;;;;5053085;28;20457;-77
2023/08/25 09:52:09;;;;;;;9.77;7.47;;;30.70;69.20;;;;;;5052975;28;20416;-78
2023/08/25 09:54:35;;;;;;;14.45;7.43;;;30.70;69.50;;;;;;5051462;28;20119;-78
2023/08/25 09:57:02;;;;;;;9.18;7.40;;;30.80;69.60;;;;;;5053018;28;20080;-78
2023/08/25 09:59:27;;;;;;;10.02;7.80;;;30.90;69.80;;;;;;5052610;28;20465;-78
2023/08/25 10:01:54;;;;;;;10.68;7.20;;;30.90;69.30;;;;;;5052360;28;20024;-78
2023/08/25 10:04:21;;;;;;;14.85;7.95;;;31.00;69.10;;;;;;5056577;28;20025;-78
2023/08/25 10:06:47;;;;;;;9.98;7.85;;;31.00;69.00;;;;;;5055437;28;20025;-78
2023/08/25 10:09:14;;;;;;;10.60;7.47;;;31.10;69.10;;;;;;5072137;28;20062;-78
2023/08/25 10:11:43;;;;;;;9.65;7.45;;;31.10;68.70;;;;;;5041977;28;20370;-79
2023/08/25 10:14:11;;;;;;;15.32;7.40;;;31.20;68.20;;;;;;5030903;28;20083;-77
2023/08/25 10:16:54;;;;;;;12.30;7.68;;;31.20;68.20;;;;;;5030764;28;20030;-78
2023/08/25 10:19:26;;;;;;;10.50;7.90;;;31.30;68.10;;;;;;5030718;28;20470;-78
2023/08/25 10:21:54;;;;;;;12.07;7.20;;;31.30;68.10;;;;;;5031532;28;20017;-77
2023/08/25 10:24:22;;;;;;;15.38;8.35;;;31.40;68.70;;;;;;5032249;28;20422;-80
2023/08/25 10:26:50;;;;;;;11.88;6.97;;;31.40;69.30;;;;;;5031389;28;20021;-80
2023/08/25 10:29:24;;;;;;;10.10;7.35;;;31.50;69.20;;;;;;5030673;28;20466;-78
2023/08/25 10:32:04;;;;;;;12.25;7.47;;;31.50;69.80;;;;;;5032134;28;20079;-81
2023/08/25 10:34:33;;;;;;;17.02;8.20;;;31.60;68.80;;;;;;5047627;28;20032;-81
2023/08/25 10:37:04;;;;;;;13.30;7.93;;;31.60;68.60;;;;;;5030776;28;20407;-80
2023/08/25 10:39:50;;;;;;;11.60;7.50;;;31.70;69.60;;;;;;5031970;28;20052;-80
2023/08/25 10:42:32;;;;;;;13.35;7.63;;;31.70;69.40;;;;;;5032323;28;20252;-79
2023/08/25 10:45:03;;;;;;;15.50;7.45;;;31.80;69.00;;;;;;5032164;28;20104;-83
2023/08/25 10:47:29;;;;;;;10.13;7.68;;;31.80;67.80;;;;;;5032397;28;20029;-82
2023/08/25 10:50:00;;;;;;;10.98;8.20;;;31.90;67.90;;;;;;5031983;28;20104;-81
2023/08/25 10:52:26;;;;;;;13.00;8.97;;;31.90;66.40;;;;;;5032121;28;20413;-79
2023/08/25 10:54:53;;;;;;;11.23;7.88;;;31.90;66.20;;;;;;5034084;28;20025;-78
2023/08/25 10:57:29;;;;;;;13.93;8.27;;;31.90;66.40;;;;;;5036039;28;20026;-81
2023/08/25 11:00:30;;;;;;;15.00;7.40;;;31.90;66.50;;;;;;5035504;28;20034;-81
2023/08/25 11:02:57;;;;;;;14.63;7.95;;;32.00;67.10;;;;;;5034213;28;20025;-82
2023/08/25 11:05:31;;;;;;;8.00;7.20;;;32.10;67.40;;;;;;5035300;28;20021;-82
2023/08/25 11:08:00;;;;;;;13.32;7.13;;;32.10;66.90;;;;;;5035501;28;20025;-81
2023/08/25 11:10:30;;;;;;;16.92;8.90;;;32.10;66.80;;;;;;5035502;28;20029;-81
2023/08/25 11:12:58;;;;;;;13.75;8.00;;;32.20;66.20;;;;;;5034555;28;20040;-82
2023/08/25 11:15:24;;;;;;;16.98;7.68;;;32.20;66.40;;;;;;5032473;28;20544;-82
2023/08/25 11:17:50;;;;;;;11.70;7.85;;;32.30;67.00;;;;;;5033061;28;20025;-81
2023/08/25 11:20:17;;;;;;;15.05;6.88;;;32.30;65.10;;;;;;5035449;28;20052;-81
2023/08/25 11:22:57;;;;;;;9.07;6.75;;;32.40;63.50;;;;;;5035026;28;20028;-81
2023/08/25 11:25:24;;;;;;;13.88;7.13;;;32.40;62.70;;;;;;5033800;28;20034;-81
2023/08/25 11:27:51;;;;;;;14.55;7.13;;;32.50;62.40;;;;;;5032133;28;20494;-84
2023/08/25 11:30:17;;;;;;;16.83;6.68;;;32.50;61.90;;;;;;5031842;28;20493;-82
2023/08/25 11:32:48;;;;;;;8.13;6.57;;;32.50;60.40;;;;;;5031096;28;20033;-81
2023/08/25 11:35:14;;;;;;;17.65;7.32;;;32.60;60.10;;;;;;5034454;28;20030;-81
2023/08/25 11:37:41;;;;;;;10.15;6.35;;;32.60;59.50;;;;;;5033552;28;20353;-82
2023/08/25 11:40:21;;;;;;;10.18;6.15;;;32.70;59.90;;;;;;5034936;28;20025;-83
2023/08/25 11:42:47;;;;;;;19.65;5.90;;;32.70;59.40;;;;;;5034596;28;20017;-82
2023/08/25 11:45:13;;;;;;;7.60;5.28;;;32.80;58.30;;;;;;5033487;28;20497;-83
2023/08/25 11:47:40;;;;;;;10.60;5.47;;;32.80;59.40;;;;;;5034982;28;20032;-83
2023/08/25 11:50:06;;;;;;;11.27;5.80;;;32.80;57.20;;;;;;5034499;28;20052;-80
2023/08/25 11:52:34;;;;;;;8.20;5.50;;;32.80;55.70;;;;;;5034943;28;20572;-81
2023/08/25 11:55:00;;;;;;;15.45;5.93;;;32.80;53.90;;;;;;5034728;28;20022;-82
2023/08/25 11:57:39;;;;;;;16.20;5.53;;;32.80;53.80;;;;;;5034412;28;20030;-83
2023/08/25 12:00:06;;;;;;;16.95;5.82;;;32.80;54.30;;;;;;5033305;28;20401;-79
2023/08/25 12:02:33;;;;;;;25.70;5.20;;;32.80;53.80;;;;;;5034297;28;20351;-82
2023/08/25 12:05:04;;;;;;;20.27;6.13;;;32.80;53.40;;;;;;5033791;28;20041;-82
2023/08/25 12:07:32;;;;;;;21.45;5.38;;;32.90;53.10;;;;;;5033885;28;20018;-81
2023/08/25 12:10:00;;;;;;;10.63;4.00;;;32.80;52.50;;;;;;5034773;28;20493;-80
2023/08/25 12:12:31;;;;;;;12.30;4.63;;;32.90;50.80;;;;;;5034225;28;20031;-80
2023/08/25 12:15:00;;;;;;;8.25;4.32;;;32.90;51.20;;;;;;5030070;28;20025;-80
2023/08/25 12:17:28;;;;;;;14.98;5.40;;;32.90;50.90;;;;;;5030957;28;20033;-80
2023/08/25 12:19:56;;;;;;;8.77;3.95;;;32.90;50.40;;;;;;5034066;28;20048;-80
2023/08/25 12:22:23;;;;;;;9.55;3.67;;;33.00;50.00;;;;;;5034040;28;20159;-80
2023/08/25 12:24:50;;;;;;;10.00;4.47;;;33.00;49.40;;;;;;5033950;28;20029;-81
2023/08/25 12:27:19;;;;;;;14.27;5.13;;;33.00;50.60;;;;;;5033379;28;20018;-81
2023/08/25 12:29:45;;;;;;;12.18;4.13;;;33.00;50.30;;;;;;5033889;28;20478;-81
2023/08/25 12:32:11;;;;;;;5.88;3.83;;;33.00;49.80;;;;;;5033830;28;20378;-81
2023/08/25 12:34:37;;;;;;;6.22;3.90;;;33.10;49.80;;;;;;5033934;28;20021;-82
2023/08/25 12:37:03;;;;;;;7.03;4.22;;;33.10;50.70;;;;;;5055311;28;20460;-77
2023/08/25 12:39:29;;;;;;;10.52;3.97;;;33.10;49.50;;;;;;5063995;28;20420;-81